sensor_id;sensor_type;location;lat;lon;timestamp;temperature;humidity
63219;DHT22;49320;52.512;13.448;2022-09-12T00:01:12;18.50;77.70
63219;DHT22;49320;52.512;13.448;2022-09-12T00:03:41;18.40;77.80
63219;DHT22;49320;52.512;13.448;2022-09-12T00:06:22;18.50;77.80
63219;DHT22;49320;52.512;13.448;2022-09-12T00:08:54;18.40;78.00
63219;DHT22;49320;52.512;13.448;2022-09-12T00:11:22;18.40;78.00
63219;DHT22;49320;52.512;13.448;2022-09-12T00:13:49;18.30;78.00
63219;DHT22;49320;52.512;13.448;2022-09-12T00:16:23;18.30;78.20
63219;DHT22;49320;52.512;13.448;2022-09-12T00:18:50;18.20;78.50
63219;DHT22;49320;52.512;13.448;2022-09-12T00:21:19;18.20;78.70
63219;DHT22;49320;52.512;13.448;2022-09-12T00:23:47;18.20;78.20
63219;DHT22;49320;52.512;13.448;2022-09-12T00:26:17;18.10;78.40
63219;DHT22;49320;52.512;13.448;2022-09-12T00:28:45;18.00;78.60
63219;DHT22;49320;52.512;13.448;2022-09-12T00:31:14;18.00;78.70
63219;DHT22;49320;52.512;13.448;2022-09-12T00:33:43;18.00;79.00
63219;DHT22;49320;52.512;13.448;2022-09-12T00:36:13;17.90;78.90
63219;DHT22;49320;52.512;13.448;2022-09-12T00:38:44;17.80;79.20
63219;DHT22;49320;52.512;13.448;2022-09-12T00:41:24;17.80;79.20
63219;DHT22;49320;52.512;13.448;2022-09-12T00:43:58;17.80;79.60
63219;DHT22;49320;52.512;13.448;2022-09-12T00:46:43;17.80;79.50
63219;DHT22;49320;52.512;13.448;2022-09-12T00:49:17;17.80;80.10
63219;DHT22;49320;52.512;13.448;2022-09-12T00:52:15;17.80;79.90
63219;DHT22;49320;52.512;13.448;2022-09-12T00:57:40;17.60;80.40
63219;DHT22;49320;52.512;13.448;2022-09-12T01:00:14;17.70;80.30
63219;DHT22;49320;52.512;13.448;2022-09-12T01:02:44;17.60;80.20
63219;DHT22;49320;52.512;13.448;2022-09-12T01:05:14;17.60;80.20
63219;DHT22;49320;52.512;13.448;2022-09-12T01:07:41;17.40;80.10
63219;DHT22;49320;52.512;13.448;2022-09-12T01:10:10;17.40;80.40
63219;DHT22;49320;52.512;13.448;2022-09-12T01:12:39;17.50;80.50
63219;DHT22;49320;52.512;13.448;2022-09-12T01:15:08;17.50;80.90
63219;DHT22;49320;52.512;13.448;2022-09-12T01:21:48;17.40;81.70
63219;DHT22;49320;52.512;13.448;2022-09-12T01:33:00;17.20;81.70
63219;DHT22;49320;52.512;13.448;2022-09-12T01:36:08;17.20;82.00
63219;DHT22;49320;52.512;13.448;2022-09-12T01:38:58;17.20;82.10
63219;DHT22;49320;52.512;13.448;2022-09-12T01:45:04;17.10;82.20
63219;DHT22;49320;52.512;13.448;2022-09-12T01:50:21;17.10;82.00
63219;DHT22;49320;52.512;13.448;2022-09-12T01:53:00;17.10;82.20
63219;DHT22;49320;52.512;13.448;2022-09-12T01:55:54;17.00;82.40
63219;DHT22;49320;52.512;13.448;2022-09-12T01:58:29;17.10;82.80
63219;DHT22;49320;52.512;13.448;2022-09-12T02:01:08;17.10;82.40
63219;DHT22;49320;52.512;13.448;2022-09-12T02:03:49;17.00;82.40
63219;DHT22;49320;52.512;13.448;2022-09-12T02:06:30;17.00;82.70
63219;DHT22;49320;52.512;13.448;2022-09-12T02:09:06;17.00;82.60
63219;DHT22;49320;52.512;13.448;2022-09-12T02:11:40;17.00;82.80
63219;DHT22;49320;52.512;13.448;2022-09-12T02:14:22;17.00;82.80
63219;DHT22;49320;52.512;13.448;2022-09-12T02:16:57;17.00;83.00
63219;DHT22;49320;52.512;13.448;2022-09-12T02:19:33;17.00;83.00
63219;DHT22;49320;52.512;13.448;2022-09-12T02:22:05;16.90;83.00
63219;DHT22;49320;52.512;13.448;2022-09-12T02:24:38;16.90;83.00
63219;DHT22;49320;52.512;13.448;2022-09-12T02:27:14;16.90;83.30
63219;DHT22;49320;52.512;13.448;2022-09-12T02:29:45;16.90;83.40
63219;DHT22;49320;52.512;13.448;2022-09-12T02:32:36;16.90;83.20
63219;DHT22;49320;52.512;13.448;2022-09-12T02:35:28;16.90;84.20
63219;DHT22;49320;52.512;13.448;2022-09-12T02:38:08;16.80;83.90
63219;DHT22;49320;52.512;13.448;2022-09-12T02:40:40;16.90;83.80
63219;DHT22;49320;52.512;13.448;2022-09-12T02:43:07;16.90;83.40
63219;DHT22;49320;52.512;13.448;2022-09-12T02:45:35;16.80;83.50
63219;DHT22;49320;52.512;13.448;2022-09-12T02:48:22;16.80;83.60
63219;DHT22;49320;52.512;13.448;2022-09-12T02:50:55;16.90;84.30
63219;DHT22;49320;52.512;13.448;2022-09-12T02:53:22;16.90;83.70
63219;DHT22;49320;52.512;13.448;2022-09-12T02:55:51;16.80;83.70
63219;DHT22;49320;52.512;13.448;2022-09-12T02:58:21;16.80;83.80
63219;DHT22;49320;52.512;13.448;2022-09-12T03:13:20;16.70;84.00
63219;DHT22;49320;52.512;13.448;2022-09-12T03:16:03;16.70;84.70
63219;DHT22;49320;52.512;13.448;2022-09-12T03:22:15;16.70;84.60
63219;DHT22;49320;52.512;13.448;2022-09-12T03:25:11;16.70;85.20
63219;DHT22;49320;52.512;13.448;2022-09-12T03:30:25;16.60;84.70
63219;DHT22;49320;52.512;13.448;2022-09-12T03:32:53;16.60;84.60
63219;DHT22;49320;52.512;13.448;2022-09-12T03:35:23;16.60;84.70
63219;DHT22;49320;52.512;13.448;2022-09-12T03:37:51;16.60;85.00
63219;DHT22;49320;52.512;13.448;2022-09-12T03:40:18;16.60;84.80
63219;DHT22;49320;52.512;13.448;2022-09-12T03:42:45;16.50;84.80
63219;DHT22;49320;52.512;13.448;2022-09-12T03:45:12;16.50;84.80
63219;DHT22;49320;52.512;13.448;2022-09-12T03:47:39;16.50;84.90
63219;DHT22;49320;52.512;13.448;2022-09-12T03:50:06;16.60;85.00
63219;DHT22;49320;52.512;13.448;2022-09-12T03:52:33;16.50;85.10
63219;DHT22;49320;52.512;13.448;2022-09-12T03:55:00;16.40;85.10
63219;DHT22;49320;52.512;13.448;2022-09-12T03:57:27;16.40;85.30
63219;DHT22;49320;52.512;13.448;2022-09-12T03:59:54;16.40;85.30
63219;DHT22;49320;52.512;13.448;2022-09-12T04:02:21;16.40;85.40
63219;DHT22;49320;52.512;13.448;2022-09-12T04:04:48;16.40;85.40
63219;DHT22;49320;52.512;13.448;2022-09-12T04:07:15;16.40;85.50
63219;DHT22;49320;52.512;13.448;2022-09-12T04:09:42;16.40;85.60
63219;DHT22;49320;52.512;13.448;2022-09-12T04:12:10;16.30;85.60
63219;DHT22;49320;52.512;13.448;2022-09-12T04:14:38;16.40;85.70
63219;DHT22;49320;52.512;13.448;2022-09-12T04:17:05;16.40;85.70
63219;DHT22;49320;52.512;13.448;2022-09-12T04:19:32;16.40;85.90
63219;DHT22;49320;52.512;13.448;2022-09-12T04:21:59;16.40;85.90
63219;DHT22;49320;52.512;13.448;2022-09-12T04:24:25;16.40;85.90
63219;DHT22;49320;52.512;13.448;2022-09-12T04:26:52;16.30;85.90
63219;DHT22;49320;52.512;13.448;2022-09-12T04:29:19;16.40;86.10
63219;DHT22;49320;52.512;13.448;2022-09-12T04:31:46;16.40;86.10
63219;DHT22;49320;52.512;13.448;2022-09-12T04:34:13;16.40;86.10
63219;DHT22;49320;52.512;13.448;2022-09-12T04:36:41;16.30;86.10
63219;DHT22;49320;52.512;13.448;2022-09-12T04:39:09;16.30;86.10
63219;DHT22;49320;52.512;13.448;2022-09-12T04:41:38;16.30;86.30
63219;DHT22;49320;52.512;13.448;2022-09-12T04:44:10;16.30;86.30
63219;DHT22;49320;52.512;13.448;2022-09-12T04:46:44;16.30;87.20
63219;DHT22;49320;52.512;13.448;2022-09-12T04:49:13;16.30;86.50
63219;DHT22;49320;52.512;13.448;2022-09-12T04:51:42;16.30;86.50
63219;DHT22;49320;52.512;13.448;2022-09-12T04:54:14;16.30;86.50
63219;DHT22;49320;52.512;13.448;2022-09-12T04:56:45;16.30;87.00
63219;DHT22;49320;52.512;13.448;2022-09-12T04:59:15;16.30;86.70
63219;DHT22;49320;52.512;13.448;2022-09-12T05:01:43;16.30;86.80
63219;DHT22;49320;52.512;13.448;2022-09-12T05:04:11;16.20;86.60
63219;DHT22;49320;52.512;13.448;2022-09-12T05:06:39;16.30;86.80
63219;DHT22;49320;52.512;13.448;2022-09-12T05:09:10;16.40;86.90
63219;DHT22;49320;52.512;13.448;2022-09-12T05:11:39;16.30;87.10
63219;DHT22;49320;52.512;13.448;2022-09-12T05:14:28;16.30;86.90
63219;DHT22;49320;52.512;13.448;2022-09-12T05:16:57;16.40;86.90
63219;DHT22;49320;52.512;13.448;2022-09-12T05:19:27;16.30;86.90
63219;DHT22;49320;52.512;13.448;2022-09-12T05:21:56;16.40;87.10
63219;DHT22;49320;52.512;13.448;2022-09-12T05:24:23;16.40;87.10
63219;DHT22;49320;52.512;13.448;2022-09-12T05:26:51;16.40;87.10
63219;DHT22;49320;52.512;13.448;2022-09-12T05:29:17;16.40;87.10
63219;DHT22;49320;52.512;13.448;2022-09-12T05:31:45;16.50;87.20
63219;DHT22;49320;52.512;13.448;2022-09-12T05:34:18;16.50;87.20
63219;DHT22;49320;52.512;13.448;2022-09-12T05:36:46;16.50;87.30
63219;DHT22;49320;52.512;13.448;2022-09-12T05:39:13;16.50;87.20
63219;DHT22;49320;52.512;13.448;2022-09-12T05:41:40;16.60;87.20
63219;DHT22;49320;52.512;13.448;2022-09-12T05:44:11;16.60;87.20
63219;DHT22;49320;52.512;13.448;2022-09-12T05:46:41;16.60;87.50
63219;DHT22;49320;52.512;13.448;2022-09-12T05:49:11;16.60;87.30
63219;DHT22;49320;52.512;13.448;2022-09-12T05:51:41;16.70;87.10
63219;DHT22;49320;52.512;13.448;2022-09-12T05:54:11;16.70;87.10
63219;DHT22;49320;52.512;13.448;2022-09-12T05:56:42;16.80;86.90
63219;DHT22;49320;52.512;13.448;2022-09-12T06:01:39;16.90;86.80
63219;DHT22;49320;52.512;13.448;2022-09-12T06:04:07;16.90;86.60
63219;DHT22;49320;52.512;13.448;2022-09-12T06:06:36;16.90;86.40
63219;DHT22;49320;52.512;13.448;2022-09-12T06:09:05;17.00;86.40
63219;DHT22;49320;52.512;13.448;2022-09-12T06:11:34;17.00;86.10
63219;DHT22;49320;52.512;13.448;2022-09-12T06:14:03;17.10;86.20
63219;DHT22;49320;52.512;13.448;2022-09-12T06:16:32;17.10;85.90
63219;DHT22;49320;52.512;13.448;2022-09-12T06:19:02;17.20;86.00
63219;DHT22;49320;52.512;13.448;2022-09-12T06:21:32;17.30;85.90
63219;DHT22;49320;52.512;13.448;2022-09-12T06:24:01;17.40;85.80
63219;DHT22;49320;52.512;13.448;2022-09-12T06:26:28;17.40;85.60
63219;DHT22;49320;52.512;13.448;2022-09-12T06:28:58;17.40;85.40
63219;DHT22;49320;52.512;13.448;2022-09-12T06:31:32;17.60;85.40
63219;DHT22;49320;52.512;13.448;2022-09-12T06:34:03;17.60;85.30
63219;DHT22;49320;52.512;13.448;2022-09-12T06:36:35;17.70;85.10
63219;DHT22;49320;52.512;13.448;2022-09-12T06:39:06;17.70;84.90
63219;DHT22;49320;52.512;13.448;2022-09-12T06:41:35;17.80;84.80
63219;DHT22;49320;52.512;13.448;2022-09-12T06:44:12;17.90;84.50
63219;DHT22;49320;52.512;13.448;2022-09-12T06:46:47;18.00;84.40
63219;DHT22;49320;52.512;13.448;2022-09-12T06:49:14;18.10;84.10
63219;DHT22;49320;52.512;13.448;2022-09-12T06:51:42;18.10;84.00
63219;DHT22;49320;52.512;13.448;2022-09-12T06:54:14;18.20;83.90
63219;DHT22;49320;52.512;13.448;2022-09-12T06:56:42;18.20;83.80
63219;DHT22;49320;52.512;13.448;2022-09-12T06:59:10;18.40;83.70
63219;DHT22;49320;52.512;13.448;2022-09-12T07:01:36;18.40;83.40
63219;DHT22;49320;52.512;13.448;2022-09-12T07:04:05;18.40;83.20
63219;DHT22;49320;52.512;13.448;2022-09-12T07:06:38;18.50;82.90
63219;DHT22;49320;52.512;13.448;2022-09-12T07:09:09;18.50;82.80
63219;DHT22;49320;52.512;13.448;2022-09-12T07:11:39;18.60;82.70
63219;DHT22;49320;52.512;13.448;2022-09-12T07:14:10;18.60;82.60
63219;DHT22;49320;52.512;13.448;2022-09-12T07:16:39;18.70;82.60
63219;DHT22;49320;52.512;13.448;2022-09-12T07:19:07;18.70;82.50
63219;DHT22;49320;52.512;13.448;2022-09-12T07:21:35;18.80;82.30
63219;DHT22;49320;52.512;13.448;2022-09-12T07:24:09;18.90;82.20
63219;DHT22;49320;52.512;13.448;2022-09-12T07:26:38;18.90;82.10
63219;DHT22;49320;52.512;13.448;2022-09-12T07:29:13;19.00;81.90
63219;DHT22;49320;52.512;13.448;2022-09-12T07:32:03;19.00;81.50
63219;DHT22;49320;52.512;13.448;2022-09-12T07:34:32;19.10;81.40
63219;DHT22;49320;52.512;13.448;2022-09-12T07:36:59;19.10;81.20
63219;DHT22;49320;52.512;13.448;2022-09-12T07:39:26;19.10;81.00
63219;DHT22;49320;52.512;13.448;2022-09-12T07:41:53;19.10;80.90
63219;DHT22;49320;52.512;13.448;2022-09-12T07:44:20;19.20;80.90
63219;DHT22;49320;52.512;13.448;2022-09-12T07:46:47;19.20;80.80
63219;DHT22;49320;52.512;13.448;2022-09-12T07:49:14;19.30;80.70
63219;DHT22;49320;52.512;13.448;2022-09-12T07:51:41;19.40;80.60
63219;DHT22;49320;52.512;13.448;2022-09-12T07:54:08;19.30;80.30
63219;DHT22;49320;52.512;13.448;2022-09-12T07:56:35;19.50;80.00
63219;DHT22;49320;52.512;13.448;2022-09-12T07:59:05;19.50;79.70
63219;DHT22;49320;52.512;13.448;2022-09-12T08:01:32;19.50;79.30
63219;DHT22;49320;52.512;13.448;2022-09-12T08:03:59;19.60;79.00
63219;DHT22;49320;52.512;13.448;2022-09-12T08:06:27;19.60;78.90
63219;DHT22;49320;52.512;13.448;2022-09-12T08:08:57;19.60;78.90
63219;DHT22;49320;52.512;13.448;2022-09-12T08:11:26;19.60;78.90
63219;DHT22;49320;52.512;13.448;2022-09-12T08:13:55;19.70;78.70
63219;DHT22;49320;52.512;13.448;2022-09-12T08:16:26;19.80;78.70
63219;DHT22;49320;52.512;13.448;2022-09-12T08:18:55;19.80;78.40
63219;DHT22;49320;52.512;13.448;2022-09-12T08:21:25;19.90;78.40
63219;DHT22;49320;52.512;13.448;2022-09-12T08:23:59;19.90;78.30
63219;DHT22;49320;52.512;13.448;2022-09-12T08:26:27;19.90;77.50
63219;DHT22;49320;52.512;13.448;2022-09-12T08:28:55;20.00;77.70
63219;DHT22;49320;52.512;13.448;2022-09-12T08:31:23;20.10;77.20
63219;DHT22;49320;52.512;13.448;2022-09-12T08:33:57;20.10;77.10
63219;DHT22;49320;52.512;13.448;2022-09-12T08:36:26;20.20;77.00
63219;DHT22;49320;52.512;13.448;2022-09-12T08:39:00;20.20;75.80
63219;DHT22;49320;52.512;13.448;2022-09-12T08:41:44;20.30;75.40
63219;DHT22;49320;52.512;13.448;2022-09-12T08:47:30;20.40;74.50
63219;DHT22;49320;52.512;13.448;2022-09-12T08:52:58;20.50;74.50
63219;DHT22;49320;52.512;13.448;2022-09-12T08:55:30;20.60;73.40
63219;DHT22;49320;52.512;13.448;2022-09-12T08:58:06;20.70;74.30
63219;DHT22;49320;52.512;13.448;2022-09-12T09:01:01;20.70;73.70
63219;DHT22;49320;52.512;13.448;2022-09-12T09:12:16;20.90;71.60
63219;DHT22;49320;52.512;13.448;2022-09-12T09:18:25;21.10;71.10
63219;DHT22;49320;52.512;13.448;2022-09-12T09:21:21;21.20;71.40
63219;DHT22;49320;52.512;13.448;2022-09-12T09:24:13;21.20;69.90
63219;DHT22;49320;52.512;13.448;2022-09-12T09:27:03;21.30;69.40
63219;DHT22;49320;52.512;13.448;2022-09-12T09:29:55;21.40;70.40
63219;DHT22;49320;52.512;13.448;2022-09-12T09:32:34;21.50;71.50
63219;DHT22;49320;52.512;13.448;2022-09-12T09:38:17;21.70;68.40
63219;DHT22;49320;52.512;13.448;2022-09-12T09:44:00;21.80;66.90
63219;DHT22;49320;52.512;13.448;2022-09-12T09:46:28;21.90;67.80
63219;DHT22;49320;52.512;13.448;2022-09-12T09:48:56;21.90;67.10
63219;DHT22;49320;52.512;13.448;2022-09-12T09:51:33;21.90;66.50
63219;DHT22;49320;52.512;13.448;2022-09-12T09:54:30;21.90;66.00
63219;DHT22;49320;52.512;13.448;2022-09-12T09:57:01;22.00;64.50
63219;DHT22;49320;52.512;13.448;2022-09-12T09:59:32;22.00;66.00
63219;DHT22;49320;52.512;13.448;2022-09-12T10:02:08;22.00;65.70
63219;DHT22;49320;52.512;13.448;2022-09-12T10:04:55;22.10;65.90
63219;DHT22;49320;52.512;13.448;2022-09-12T10:07:23;22.20;64.80
63219;DHT22;49320;52.512;13.448;2022-09-12T10:10:15;22.20;65.20
63219;DHT22;49320;52.512;13.448;2022-09-12T10:12:44;22.30;63.40
63219;DHT22;49320;52.512;13.448;2022-09-12T10:15:19;22.40;64.40
63219;DHT22;49320;52.512;13.448;2022-09-12T10:17:52;22.40;63.10
63219;DHT22;49320;52.512;13.448;2022-09-12T10:20:39;22.50;63.60
63219;DHT22;49320;52.512;13.448;2022-09-12T10:25:56;22.60;62.70
63219;DHT22;49320;52.512;13.448;2022-09-12T10:28:37;22.60;63.20
63219;DHT22;49320;52.512;13.448;2022-09-12T10:31:13;22.60;61.60
63219;DHT22;49320;52.512;13.448;2022-09-12T10:33:48;22.70;61.20
63219;DHT22;49320;52.512;13.448;2022-09-12T10:36:19;22.80;60.90
63219;DHT22;49320;52.512;13.448;2022-09-12T10:38:53;22.70;61.60
63219;DHT22;49320;52.512;13.448;2022-09-12T10:41:24;22.80;60.60
63219;DHT22;49320;52.512;13.448;2022-09-12T10:43:50;22.80;61.00
63219;DHT22;49320;52.512;13.448;2022-09-12T10:48:46;22.80;60.90
63219;DHT22;49320;52.512;13.448;2022-09-12T10:53:58;22.80;59.70
63219;DHT22;49320;52.512;13.448;2022-09-12T10:56:30;22.70;60.10
63219;DHT22;49320;52.512;13.448;2022-09-12T11:05:56;22.70;59.50
63219;DHT22;49320;52.512;13.448;2022-09-12T11:08:38;22.80;59.30
63219;DHT22;49320;52.512;13.448;2022-09-12T11:11:37;22.90;59.80
63219;DHT22;49320;52.512;13.448;2022-09-12T11:14:33;23.00;59.50
63219;DHT22;49320;52.512;13.448;2022-09-12T11:17:25;23.10;60.10
63219;DHT22;49320;52.512;13.448;2022-09-12T11:20:29;23.10;59.30
63219;DHT22;49320;52.512;13.448;2022-09-12T11:26:02;23.40;58.80
63219;DHT22;49320;52.512;13.448;2022-09-12T11:29:00;23.50;58.50
63219;DHT22;49320;52.512;13.448;2022-09-12T11:31:48;23.50;58.80
63219;DHT22;49320;52.512;13.448;2022-09-12T11:35:07;23.60;59.20
63219;DHT22;49320;52.512;13.448;2022-09-12T11:44:38;23.80;57.60
63219;DHT22;49320;52.512;13.448;2022-09-12T11:46:41;23.80;57.40
63219;DHT22;49320;52.512;13.448;2022-09-12T11:49:50;23.90;57.80
63219;DHT22;49320;52.512;13.448;2022-09-12T11:52:22;23.90;56.00
63219;DHT22;49320;52.512;13.448;2022-09-12T11:55:06;23.90;56.80
63219;DHT22;49320;52.512;13.448;2022-09-12T11:57:46;24.10;55.90
63219;DHT22;49320;52.512;13.448;2022-09-12T12:00:18;24.10;56.80
63219;DHT22;49320;52.512;13.448;2022-09-12T12:03:08;24.20;56.60
63219;DHT22;49320;52.512;13.448;2022-09-12T12:06:06;24.30;55.40
63219;DHT22;49320;52.512;13.448;2022-09-12T12:08:48;24.40;56.70
63219;DHT22;49320;52.512;13.448;2022-09-12T12:11:28;24.50;56.50
63219;DHT22;49320;52.512;13.448;2022-09-12T12:14:04;24.60;55.40
63219;DHT22;49320;52.512;13.448;2022-09-12T12:16:40;24.70;55.90
63219;DHT22;49320;52.512;13.448;2022-09-12T12:21:46;24.90;55.20
63219;DHT22;49320;52.512;13.448;2022-09-12T12:24:20;24.90;55.30
63219;DHT22;49320;52.512;13.448;2022-09-12T12:34:42;25.20;53.80
63219;DHT22;49320;52.512;13.448;2022-09-12T12:40:06;25.20;53.20
63219;DHT22;49320;52.512;13.448;2022-09-12T12:42:56;25.20;54.30
63219;DHT22;49320;52.512;13.448;2022-09-12T12:47:57;25.20;54.50
63219;DHT22;49320;52.512;13.448;2022-09-12T12:50:31;25.20;54.30
63219;DHT22;49320;52.512;13.448;2022-09-12T12:53:21;25.20;54.20
63219;DHT22;49320;52.512;13.448;2022-09-12T12:55:53;25.30;52.60
63219;DHT22;49320;52.512;13.448;2022-09-12T12:58:31;25.40;53.70
63219;DHT22;49320;52.512;13.448;2022-09-12T13:01:20;25.40;52.60
63219;DHT22;49320;52.512;13.448;2022-09-12T13:04:04;25.40;52.40
63219;DHT22;49320;52.512;13.448;2022-09-12T13:06:42;25.40;52.50
63219;DHT22;49320;52.512;13.448;2022-09-12T13:09:18;25.40;53.30
63219;DHT22;49320;52.512;13.448;2022-09-12T13:11:57;25.50;53.30
63219;DHT22;49320;52.512;13.448;2022-09-12T13:14:47;25.50;52.70
63219;DHT22;49320;52.512;13.448;2022-09-12T13:20:27;25.60;52.50
63219;DHT22;49320;52.512;13.448;2022-09-12T13:22:57;25.60;52.00
63219;DHT22;49320;52.512;13.448;2022-09-12T13:28:14;25.60;52.70
63219;DHT22;49320;52.512;13.448;2022-09-12T13:31:11;25.60;52.70
63219;DHT22;49320;52.512;13.448;2022-09-12T13:33:54;25.60;51.70
63219;DHT22;49320;52.512;13.448;2022-09-12T13:39:46;25.50;51.70
63219;DHT22;49320;52.512;13.448;2022-09-12T13:47:52;25.40;51.90
63219;DHT22;49320;52.512;13.448;2022-09-12T13:50:36;25.40;51.80
63219;DHT22;49320;52.512;13.448;2022-09-12T13:53:13;25.40;52.30
63219;DHT22;49320;52.512;13.448;2022-09-12T13:55:46;25.40;52.10
63219;DHT22;49320;52.512;13.448;2022-09-12T13:58:25;25.40;52.00
63219;DHT22;49320;52.512;13.448;2022-09-12T14:01:12;25.40;52.30
63219;DHT22;49320;52.512;13.448;2022-09-12T14:03:47;25.40;50.90
63219;DHT22;49320;52.512;13.448;2022-09-12T14:09:22;25.30;52.00
63219;DHT22;49320;52.512;13.448;2022-09-12T14:11:51;25.30;51.60
63219;DHT22;49320;52.512;13.448;2022-09-12T14:14:33;25.30;51.80
63219;DHT22;49320;52.512;13.448;2022-09-12T14:17:35;25.30;51.40
63219;DHT22;49320;52.512;13.448;2022-09-12T14:20:07;25.30;50.50
63219;DHT22;49320;52.512;13.448;2022-09-12T14:22:39;25.30;51.70
63219;DHT22;49320;52.512;13.448;2022-09-12T14:25:13;25.30;51.60
63219;DHT22;49320;52.512;13.448;2022-09-12T14:27:49;25.30;51.10
63219;DHT22;49320;52.512;13.448;2022-09-12T14:30:25;25.30;51.40
63219;DHT22;49320;52.512;13.448;2022-09-12T14:35:48;25.30;51.70
63219;DHT22;49320;52.512;13.448;2022-09-12T14:38:30;25.20;51.10
63219;DHT22;49320;52.512;13.448;2022-09-12T14:41:05;25.20;51.80
63219;DHT22;49320;52.512;13.448;2022-09-12T14:43:37;25.20;51.80
63219;DHT22;49320;52.512;13.448;2022-09-12T14:46:32;25.10;51.70
63219;DHT22;49320;52.512;13.448;2022-09-12T14:49:26;25.20;51.40
63219;DHT22;49320;52.512;13.448;2022-09-12T14:52:00;25.20;51.00
63219;DHT22;49320;52.512;13.448;2022-09-12T14:56:59;25.30;52.10
63219;DHT22;49320;52.512;13.448;2022-09-12T15:04:49;25.20;50.40
63219;DHT22;49320;52.512;13.448;2022-09-12T15:07:40;25.20;51.30
63219;DHT22;49320;52.512;13.448;2022-09-12T15:10:18;25.10;50.80
63219;DHT22;49320;52.512;13.448;2022-09-12T15:15:37;25.10;51.00
63219;DHT22;49320;52.512;13.448;2022-09-12T15:18:05;25.00;51.60
63219;DHT22;49320;52.512;13.448;2022-09-12T15:20:34;25.00;51.50
63219;DHT22;49320;52.512;13.448;2022-09-12T15:23:04;25.00;51.60
63219;DHT22;49320;52.512;13.448;2022-09-12T15:25:33;24.90;51.40
63219;DHT22;49320;52.512;13.448;2022-09-12T15:28:00;24.90;51.40
63219;DHT22;49320;52.512;13.448;2022-09-12T15:30:27;24.90;51.50
63219;DHT22;49320;52.512;13.448;2022-09-12T15:32:54;24.90;51.40
63219;DHT22;49320;52.512;13.448;2022-09-12T15:35:22;24.90;51.50
63219;DHT22;49320;52.512;13.448;2022-09-12T15:37:51;24.80;51.50
63219;DHT22;49320;52.512;13.448;2022-09-12T15:40:17;24.80;51.50
63219;DHT22;49320;52.512;13.448;2022-09-12T15:42:44;24.80;51.40
63219;DHT22;49320;52.512;13.448;2022-09-12T15:45:25;24.70;51.30
63219;DHT22;49320;52.512;13.448;2022-09-12T15:47:54;24.80;50.70
63219;DHT22;49320;52.512;13.448;2022-09-12T15:50:22;24.60;51.30
63219;DHT22;49320;52.512;13.448;2022-09-12T15:52:49;24.60;51.30
63219;DHT22;49320;52.512;13.448;2022-09-12T15:55:29;24.60;51.40
63219;DHT22;49320;52.512;13.448;2022-09-12T15:57:58;24.60;51.00
63219;DHT22;49320;52.512;13.448;2022-09-12T16:00:31;24.40;51.50
63219;DHT22;49320;52.512;13.448;2022-09-12T16:02:58;24.50;51.60
63219;DHT22;49320;52.512;13.448;2022-09-12T16:05:25;24.50;51.60
63219;DHT22;49320;52.512;13.448;2022-09-12T16:07:53;24.40;51.60
63219;DHT22;49320;52.512;13.448;2022-09-12T16:10:25;24.40;51.50
63219;DHT22;49320;52.512;13.448;2022-09-12T16:12:54;24.40;51.60
63219;DHT22;49320;52.512;13.448;2022-09-12T16:15:23;24.40;51.40
63219;DHT22;49320;52.512;13.448;2022-09-12T16:17:50;24.30;51.80
63219;DHT22;49320;52.512;13.448;2022-09-12T16:20:18;24.30;51.90
63219;DHT22;49320;52.512;13.448;2022-09-12T16:22:46;24.20;51.90
63219;DHT22;49320;52.512;13.448;2022-09-12T16:25:13;24.10;52.00
63219;DHT22;49320;52.512;13.448;2022-09-12T16:27:40;24.10;52.00
63219;DHT22;49320;52.512;13.448;2022-09-12T16:30:08;24.10;52.10
63219;DHT22;49320;52.512;13.448;2022-09-12T16:32:35;24.00;52.20
63219;DHT22;49320;52.512;13.448;2022-09-12T16:35:03;24.00;52.20
63219;DHT22;49320;52.512;13.448;2022-09-12T16:37:30;23.90;52.20
63219;DHT22;49320;52.512;13.448;2022-09-12T16:40:00;23.90;52.30
63219;DHT22;49320;52.512;13.448;2022-09-12T16:42:28;23.90;52.40
63219;DHT22;49320;52.512;13.448;2022-09-12T16:44:55;23.70;52.40
63219;DHT22;49320;52.512;13.448;2022-09-12T16:47:22;23.70;52.40
63219;DHT22;49320;52.512;13.448;2022-09-12T16:49:48;23.70;52.50
63219;DHT22;49320;52.512;13.448;2022-09-12T16:52:16;23.70;52.60
63219;DHT22;49320;52.512;13.448;2022-09-12T16:54:44;23.60;52.70
63219;DHT22;49320;52.512;13.448;2022-09-12T16:57:11;23.60;52.80
63219;DHT22;49320;52.512;13.448;2022-09-12T16:59:38;23.50;52.80
63219;DHT22;49320;52.512;13.448;2022-09-12T17:02:06;23.40;52.90
63219;DHT22;49320;52.512;13.448;2022-09-12T17:04:33;23.40;53.00
63219;DHT22;49320;52.512;13.448;2022-09-12T17:06:59;23.30;53.10
63219;DHT22;49320;52.512;13.448;2022-09-12T17:09:26;23.30;53.10
63219;DHT22;49320;52.512;13.448;2022-09-12T17:11:55;23.30;53.30
63219;DHT22;49320;52.512;13.448;2022-09-12T17:14:23;23.20;53.30
63219;DHT22;49320;52.512;13.448;2022-09-12T17:16:50;23.10;53.40
63219;DHT22;49320;52.512;13.448;2022-09-12T17:19:21;23.10;53.50
63219;DHT22;49320;52.512;13.448;2022-09-12T17:21:52;23.00;53.50
63219;DHT22;49320;52.512;13.448;2022-09-12T17:24:20;23.00;53.70
63219;DHT22;49320;52.512;13.448;2022-09-12T17:26:47;22.90;53.70
63219;DHT22;49320;52.512;13.448;2022-09-12T17:29:15;22.90;54.10
63219;DHT22;49320;52.512;13.448;2022-09-12T17:31:43;22.90;53.90
63219;DHT22;49320;52.512;13.448;2022-09-12T17:34:10;22.80;54.00
63219;DHT22;49320;52.512;13.448;2022-09-12T17:36:42;22.70;54.00
63219;DHT22;49320;52.512;13.448;2022-09-12T17:39:11;22.70;54.10
63219;DHT22;49320;52.512;13.448;2022-09-12T17:41:39;22.60;54.20
63219;DHT22;49320;52.512;13.448;2022-09-12T17:44:12;22.50;54.20
63219;DHT22;49320;52.512;13.448;2022-09-12T17:49:13;22.50;53.80
63219;DHT22;49320;52.512;13.448;2022-09-12T17:51:42;22.40;54.40
63219;DHT22;49320;52.512;13.448;2022-09-12T17:54:12;22.40;54.50
63219;DHT22;49320;52.512;13.448;2022-09-12T17:56:42;22.30;54.60
63219;DHT22;49320;52.512;13.448;2022-09-12T17:59:16;22.20;54.70
63219;DHT22;49320;52.512;13.448;2022-09-12T18:01:45;22.20;54.80
63219;DHT22;49320;52.512;13.448;2022-09-12T18:04:31;22.10;54.90
63219;DHT22;49320;52.512;13.448;2022-09-12T18:06:58;22.00;55.00
63219;DHT22;49320;52.512;13.448;2022-09-12T18:09:26;22.00;55.10
63219;DHT22;49320;52.512;13.448;2022-09-12T18:11:53;21.90;55.20
63219;DHT22;49320;52.512;13.448;2022-09-12T18:14:21;21.90;55.30